Jaboticabal, Brazil
Current Conditions -  °F | °C
As of 2:00 PM on Saturday 20 Dec 2014 (Local Time) from SBRP Reporting Station
Rain Showers Rain Showers  
Wind Chill: 86°   Ceiling: 3500
Heat Index: 88°   Visibility: 6mi
Dew Point: 66°   Wind: 7mph
Humidity: 51%   Direction: 20°NNE
Pressure: NA   Gusts: NA
Location:  21.25°S, 48.33°W
Report Text: SBRP 201600Z 02006KT 350V070 9999 VCSH BKN035 FEW040TCU 30/19 Q1012
Loading
Personal Weather Stations






























Interactive Weather Map New forecast layout! Learn more

10-Day Weather Forecast

Advertisements
Track Severe Weather on mobile